Time;durP1;ratioP1;P1;durP2;ratioP2;P2;SDS_P1;SDS_P2;PMS_P1;PMS_P2;Temp;Humidity;BMP_temperature;BMP_pressure;BME280_temperature;BME280_humidity;BME280_pressure;Samples;Min_cycle;Max_cycle;Signal;HPM_P1;HPM_P2
2022/04/03 00:01:57;;;;;;;16.15;11.23;;;0.00;99.90;;;;;;5116175;28;20028;-80
2022/04/03 00:04:24;;;;;;;17.25;12.07;;;0.00;99.90;;;;;;5117166;28;20079;-81
2022/04/03 00:06:50;;;;;;;16.10;12.13;;;0.00;99.90;;;;;;5117132;28;20020;-81
2022/04/03 00:09:16;;;;;;;17.05;12.15;;;-0.10;99.90;;;;;;5116599;28;20054;-81
2022/04/03 00:11:44;;;;;;;16.35;11.32;;;-0.10;99.90;;;;;;5098836;28;20020;-80
2022/04/03 00:14:10;;;;;;;15.88;11.00;;;-0.10;99.90;;;;;;5116318;28;20028;-81
2022/04/03 00:16:36;;;;;;;16.23;11.85;;;-0.10;99.90;;;;;;5116648;28;20044;-81
2022/04/03 00:19:02;;;;;;;17.42;11.52;;;-0.20;99.90;;;;;;5116266;28;20062;-81
2022/04/03 00:21:28;;;;;;;15.20;11.63;;;-0.20;99.90;;;;;;5116040;28;20047;-81
2022/04/03 00:23:54;;;;;;;17.02;11.82;;;-0.20;99.90;;;;;;5115514;28;20020;-82
2022/04/03 00:26:20;;;;;;;14.85;11.68;;;-0.20;99.90;;;;;;5092658;28;20074;-83
2022/04/03 00:28:46;;;;;;;19.48;11.60;;;-0.30;99.90;;;;;;5106189;28;20035;-81
2022/04/03 00:31:12;;;;;;;15.38;11.43;;;-0.30;99.90;;;;;;5110226;28;20023;-81
2022/04/03 00:33:39;;;;;;;15.60;10.93;;;-0.30;99.90;;;;;;5113955;28;20118;-83
2022/04/03 00:36:05;;;;;;;19.90;12.02;;;-0.30;99.90;;;;;;5105850;28;20028;-82
2022/04/03 00:38:38;;;;;;;16.65;11.20;;;-0.30;99.90;;;;;;5105828;28;20431;-82
2022/04/03 00:41:03;;;;;;;16.15;10.60;;;-0.30;99.90;;;;;;5116734;28;20051;-81
2022/04/03 00:43:30;;;;;;;18.25;11.07;;;-0.30;99.90;;;;;;5115235;28;20043;-81
2022/04/03 00:45:58;;;;;;;19.20;12.52;;;-0.20;99.90;;;;;;5109755;28;20039;-81
2022/04/03 00:48:23;;;;;;;18.48;11.38;;;-0.20;99.90;;;;;;5118844;28;20036;-79
2022/04/03 00:50:51;;;;;;;15.18;12.23;;;-0.10;99.90;;;;;;5126796;28;20096;-80
2022/04/03 00:53:16;;;;;;;16.40;11.82;;;-0.10;99.90;;;;;;5138378;28;20016;-79
2022/04/03 00:55:43;;;;;;;16.35;11.32;;;-0.10;99.90;;;;;;5139419;28;20015;-80
2022/04/03 00:58:10;;;;;;;15.55;11.73;;;-0.10;99.90;;;;;;5139365;28;20008;-79
2022/04/03 01:00:37;;;;;;;17.92;12.98;;;-0.10;99.90;;;;;;5135262;28;20036;-80
2022/04/03 01:03:03;;;;;;;18.08;12.40;;;0.00;99.90;;;;;;5123201;28;20075;-80
2022/04/03 01:05:29;;;;;;;18.35;13.77;;;0.00;99.90;;;;;;5137502;28;20187;-80
2022/04/03 01:07:55;;;;;;;18.00;13.45;;;0.00;99.90;;;;;;5138433;28;20027;-80
2022/04/03 01:10:21;;;;;;;17.98;14.15;;;0.00;99.90;;;;;;5136788;28;20032;-80
2022/04/03 01:12:50;;;;;;;19.60;13.98;;;0.00;99.90;;;;;;5138923;28;20049;-79
2022/04/03 01:15:17;;;;;;;20.58;14.57;;;0.00;99.90;;;;;;5138332;28;20123;-80
2022/04/03 01:17:44;;;;;;;19.33;14.23;;;0.00;99.90;;;;;;5135435;28;20016;-80
2022/04/03 01:20:10;;;;;;;17.55;13.55;;;0.10;99.90;;;;;;5135716;28;20070;-80
2022/04/03 01:22:37;;;;;;;18.77;14.02;;;0.10;99.90;;;;;;5121745;28;20039;-81
2022/04/03 01:25:04;;;;;;;18.25;13.90;;;0.10;99.90;;;;;;5115226;28;20031;-81
2022/04/03 01:27:29;;;;;;;19.80;14.60;;;0.20;99.90;;;;;;5097258;28;20012;-80
2022/04/03 01:29:57;;;;;;;18.00;13.48;;;0.20;99.90;;;;;;5112699;28;20040;-82
2022/04/03 01:32:23;;;;;;;20.77;15.18;;;0.10;99.90;;;;;;5113589;28;20024;-82
2022/04/03 01:34:49;;;;;;;19.55;14.63;;;0.10;99.90;;;;;;5100722;28;20103;-82
2022/04/03 01:37:15;;;;;;;17.73;14.25;;;0.10;99.90;;;;;;5111396;28;20079;-82
2022/04/03 01:39:41;;;;;;;19.48;13.85;;;0.20;99.90;;;;;;5093609;28;20032;-81
2022/04/03 01:42:07;;;;;;;20.38;14.73;;;0.10;99.90;;;;;;5098330;28;20016;-83
2022/04/03 01:44:36;;;;;;;18.80;13.63;;;0.10;99.90;;;;;;5132321;28;20039;-82
2022/04/03 01:47:02;;;;;;;18.00;14.25;;;0.10;99.90;;;;;;5114954;28;20171;-80
2022/04/03 01:49:27;;;;;;;21.45;15.23;;;0.20;99.90;;;;;;5111985;28;20031;-82
2022/04/03 01:51:53;;;;;;;20.08;15.15;;;0.20;99.90;;;;;;5093623;28;20087;-82
2022/04/03 01:57:13;;;;;;;19.63;14.48;;;0.20;99.90;;;;;;5162882;22;20053;-82
2022/04/03 01:59:42;;;;;;;18.13;13.55;;;0.10;99.90;;;;;;5131477;28;20019;-81
2022/04/03 02:02:37;;;;;;;21.92;15.05;;;0.10;99.90;;;;;;5117003;28;20047;-81
2022/04/03 02:50:53;;;;;;;21.90;15.45;;;0.10;99.90;;;;;;4943594;29;20035;-80
2022/04/03 02:57:05;;;;;;;22.75;15.05;;;0.10;99.90;;;;;;5005967;28;20077;-82
2022/04/03 03:07:21;;;;;;;24.60;17.38;;;0.10;99.90;;;;;;5291903;22;20153;-83
2022/04/03 03:13:28;;;;;;;;;;;;;;;;;;;;;
2022/04/03 03:16:34;;;;;;;22.33;15.45;;;0.10;99.90;;;;;;5044300;28;20102;-81
2022/04/03 03:19:49;;;;;;;23.52;15.60;;;0.10;99.90;;;;;;5048010;28;20081;-80
2022/04/03 03:23:28;;;;;;;;;;;;;;;;;;;;;
2022/04/03 03:26:15;;;;;;;26.17;15.82;;;0.00;99.90;;;;;;5005830;28;20177;-82
2022/04/03 03:32:16;;;;;;;22.40;15.15;;;0.00;99.90;;;;;;5043329;28;20122;-82
2022/04/03 03:46:01;;;;;;;20.60;14.27;;;0.00;99.90;;;;;;5103960;28;20131;-80
2022/04/03 03:48:37;;;;;;;22.27;14.90;;;0.10;99.90;;;;;;5018725;28;20041;-82
2022/04/03 03:54:10;;;;;;;21.35;15.10;;;0.10;99.90;;;;;;5024633;28;20026;-83
2022/04/03 03:56:44;;;;;;;20.90;14.95;;;0.10;99.90;;;;;;5028428;28;20076;-80
2022/04/03 03:59:40;;;;;;;18.42;13.95;;;0.10;99.90;;;;;;5112734;28;20044;-82
2022/04/03 04:05:54;;;;;;;20.10;14.65;;;0.10;99.90;;;;;;5101465;28;20047;-82
2022/04/03 04:08:20;;;;;;;21.05;14.52;;;0.10;99.90;;;;;;5101913;28;20058;-82
2022/04/03 04:10:46;;;;;;;21.20;14.23;;;0.10;99.90;;;;;;5101221;28;20415;-81
2022/04/03 04:13:12;;;;;;;21.05;14.95;;;0.20;99.90;;;;;;5102812;28;20095;-83
2022/04/03 04:15:38;;;;;;;25.13;15.85;;;0.20;99.90;;;;;;5085359;28;20024;-82
2022/04/03 04:18:03;;;;;;;22.10;14.25;;;0.20;99.90;;;;;;5087589;28;20016;-82
2022/04/03 04:20:29;;;;;;;19.67;14.10;;;0.10;99.90;;;;;;5103403;28;20043;-82
2022/04/03 04:22:55;;;;;;;19.05;13.90;;;0.20;99.90;;;;;;5103491;28;20428;-82
2022/04/03 04:25:21;;;;;;;22.38;14.50;;;0.10;99.90;;;;;;5121479;28;20050;-82
2022/04/03 04:27:47;;;;;;;19.70;15.00;;;0.20;99.90;;;;;;5122965;28;20468;-79
2022/04/03 04:30:14;;;;;;;23.10;15.52;;;0.10;99.90;;;;;;5125887;28;20024;-80
2022/04/03 04:32:41;;;;;;;24.63;16.30;;;0.20;99.90;;;;;;5135193;27;20050;-81
2022/04/03 04:35:07;;;;;;;20.33;14.75;;;0.10;99.90;;;;;;5129802;27;20392;-81
2022/04/03 04:37:39;;;;;;;23.75;15.40;;;0.20;99.90;;;;;;5106598;28;20024;-80
2022/04/03 04:40:06;;;;;;;17.63;13.68;;;0.20;99.90;;;;;;5108257;28;20095;-80
2022/04/03 04:42:32;;;;;;;19.77;14.60;;;0.20;99.90;;;;;;5126012;28;20024;-81
2022/04/03 04:44:58;;;;;;;21.35;15.75;;;0.20;99.90;;;;;;5105500;28;20047;-82
2022/04/03 04:47:23;;;;;;;19.42;14.25;;;0.20;99.90;;;;;;5124224;28;20032;-81
2022/04/03 04:49:49;;;;;;;23.40;14.65;;;0.20;99.90;;;;;;5105528;28;20031;-82
2022/04/03 04:52:15;;;;;;;21.85;16.45;;;0.10;99.90;;;;;;5105898;28;20045;-81
2022/04/03 04:54:40;;;;;;;20.80;15.55;;;0.10;99.90;;;;;;5121522;28;20030;-81
2022/04/03 04:57:06;;;;;;;23.73;16.67;;;0.20;99.90;;;;;;5122361;28;20123;-82
2022/04/03 04:59:32;;;;;;;23.15;16.20;;;0.20;99.90;;;;;;5120723;28;20027;-81
2022/04/03 05:01:59;;;;;;;26.40;16.85;;;0.20;99.90;;;;;;5120747;28;20030;-81
2022/04/03 05:04:25;;;;;;;20.40;14.93;;;0.20;99.90;;;;;;5106151;28;20027;-81
2022/04/03 05:06:52;;;;;;;26.35;18.38;;;0.20;99.90;;;;;;5120419;28;20037;-81
2022/04/03 05:09:19;;;;;;;28.17;18.15;;;0.20;99.90;;;;;;5126657;28;20049;-78
2022/04/03 05:11:49;;;;;;;26.80;17.50;;;0.30;99.90;;;;;;5139123;28;20015;-79
2022/04/03 05:14:14;;;;;;;23.98;17.27;;;0.20;99.90;;;;;;5133660;28;20482;-82
2022/04/03 05:16:41;;;;;;;24.10;16.98;;;0.30;99.90;;;;;;5101865;28;20032;-82
2022/04/03 05:19:10;;;;;;;25.95;17.08;;;0.30;99.90;;;;;;5122473;28;20030;-82
2022/04/03 05:21:36;;;;;;;25.38;17.92;;;0.30;99.90;;;;;;5124166;28;20047;-80
2022/04/03 05:24:02;;;;;;;27.23;17.27;;;0.30;99.90;;;;;;5124567;28;20031;-82
2022/04/03 05:26:28;;;;;;;25.48;16.98;;;0.30;99.90;;;;;;5123758;28;20488;-80
2022/04/03 05:28:53;;;;;;;25.77;16.92;;;0.30;99.90;;;;;;5124141;28;20027;-81
2022/04/03 05:31:19;;;;;;;26.05;17.33;;;0.30;99.90;;;;;;5128578;28;20327;-80
2022/04/03 05:33:45;;;;;;;24.08;16.75;;;0.30;99.90;;;;;;5129896;28;20053;-81
2022/04/03 05:36:11;;;;;;;24.45;17.30;;;0.30;99.90;;;;;;5125705;28;20035;-82
2022/04/03 05:38:37;;;;;;;25.65;16.83;;;0.40;99.90;;;;;;5121437;28;20028;-79
2022/04/03 05:41:02;;;;;;;23.77;16.77;;;0.40;99.90;;;;;;5109805;28;20024;-79
2022/04/03 05:43:28;;;;;;;24.00;16.23;;;0.40;99.90;;;;;;5127022;28;20515;-78
2022/04/03 05:45:54;;;;;;;21.67;16.17;;;0.40;99.90;;;;;;5057587;22;20055;-81
2022/04/03 05:48:20;;;;;;;22.58;15.77;;;0.40;99.90;;;;;;5044645;28;20485;-80
2022/04/03 05:50:46;;;;;;;57.85;33.65;;;0.40;99.90;;;;;;5036219;28;20045;-79
2022/04/03 05:53:12;;;;;;;30.35;21.33;;;0.40;99.90;;;;;;5036541;28;20025;-80
2022/04/03 05:55:38;;;;;;;24.73;17.45;;;0.40;99.90;;;;;;5037044;28;20053;-79
2022/04/03 05:58:04;;;;;;;24.50;16.98;;;0.40;99.90;;;;;;5050199;28;20025;-79
2022/04/03 06:00:29;;;;;;;34.47;22.58;;;0.50;99.90;;;;;;5056577;28;20043;-78
2022/04/03 06:02:57;;;;;;;48.67;29.90;;;0.40;99.90;;;;;;5056488;28;20128;-78
2022/04/03 06:05:28;;;;;;;35.30;25.02;;;0.50;99.90;;;;;;5076207;28;20020;-79
2022/04/03 06:07:57;;;;;;;31.70;21.60;;;0.40;99.90;;;;;;5077534;28;20554;-79
2022/04/03 06:10:24;;;;;;;62.50;37.42;;;0.40;99.90;;;;;;5082856;28;20488;-79
2022/04/03 06:12:54;;;;;;;36.83;24.08;;;0.50;99.90;;;;;;5084236;28;20028;-79
2022/04/03 06:15:20;;;;;;;23.40;15.43;;;0.60;99.90;;;;;;5059596;28;20032;-79
2022/04/03 06:17:51;;;;;;;20.50;14.82;;;0.70;99.90;;;;;;5042892;28;20021;-81
2022/04/03 06:20:18;;;;;;;19.23;13.55;;;0.80;99.90;;;;;;5057714;28;20021;-77
2022/04/03 06:22:44;;;;;;;18.80;12.55;;;0.90;99.90;;;;;;5057278;28;20489;-78
2022/04/03 06:25:11;;;;;;;17.50;13.15;;;0.80;99.90;;;;;;5056795;28;20036;-79
2022/04/03 06:27:39;;;;;;;18.88;13.82;;;0.70;99.90;;;;;;5059105;28;20036;-79
2022/04/03 06:30:06;;;;;;;18.88;12.48;;;0.80;99.90;;;;;;5036647;28;20058;-79
2022/04/03 06:32:31;;;;;;;17.45;12.57;;;0.90;99.90;;;;;;5039033;28;20039;-80
2022/04/03 06:35:02;;;;;;;15.70;12.18;;;1.10;99.90;;;;;;5057445;28;20081;-80
2022/04/03 06:37:28;;;;;;;16.90;12.35;;;1.20;99.90;;;;;;5058991;28;20539;-81
2022/04/03 06:39:53;;;;;;;61.28;30.17;;;1.20;99.90;;;;;;5058198;28;20028;-80
2022/04/03 06:42:20;;;;;;;82.32;38.78;;;1.30;99.90;;;;;;5057227;28;20021;-79
2022/04/03 06:44:46;;;;;;;38.40;21.88;;;1.20;99.90;;;;;;5040198;28;20148;-78
2022/04/03 06:47:12;;;;;;;44.55;24.13;;;1.20;99.90;;;;;;5060549;28;20116;-81
2022/04/03 06:49:40;;;;;;;33.40;18.13;;;1.20;99.90;;;;;;5062383;28;20025;-81
2022/04/03 06:52:09;;;;;;;39.30;20.70;;;1.10;99.90;;;;;;5048366;28;20513;-82
2022/04/03 06:54:36;;;;;;;37.55;18.17;;;1.10;99.90;;;;;;5067781;28;20032;-81
2022/04/03 06:57:02;;;;;;;23.65;13.95;;;1.00;99.90;;;;;;5066910;28;20067;-82
2022/04/03 06:59:29;;;;;;;39.97;22.92;;;1.00;99.90;;;;;;5071991;28;20109;-82
2022/04/03 07:01:58;;;;;;;27.67;16.45;;;1.10;99.90;;;;;;5066581;28;20031;-79
2022/04/03 07:04:24;;;;;;;20.02;13.88;;;1.10;99.90;;;;;;5068254;28;20033;-82
2022/04/03 07:06:50;;;;;;;20.95;13.50;;;1.00;99.90;;;;;;5066239;28;20025;-87
2022/04/03 07:09:15;;;;;;;20.15;13.43;;;1.00;99.90;;;;;;5070477;28;20021;-78
2022/04/03 07:11:41;;;;;;;15.93;11.63;;;1.00;99.90;;;;;;5063981;28;20013;-79
2022/04/03 07:14:07;;;;;;;19.33;12.07;;;1.00;99.90;;;;;;5045380;28;20021;-82
2022/04/03 07:16:33;;;;;;;17.77;12.35;;;1.00;99.90;;;;;;5045225;28;20025;-80
2022/04/03 07:18:59;;;;;;;18.83;13.32;;;1.10;99.90;;;;;;5066747;28;20033;-86
2022/04/03 07:21:24;;;;;;;17.85;11.88;;;1.10;99.90;;;;;;5047719;28;20025;-79
2022/04/03 07:23:51;;;;;;;15.57;12.18;;;1.10;99.90;;;;;;5063273;28;20029;-81
2022/04/03 07:26:16;;;;;;;18.55;12.50;;;1.10;99.90;;;;;;5063242;28;20028;-83
2022/04/03 07:28:42;;;;;;;18.70;11.60;;;1.10;99.90;;;;;;5043877;28;20021;-81
2022/04/03 07:31:10;;;;;;;13.32;10.00;;;1.10;99.90;;;;;;5045396;28;20082;-83
2022/04/03 07:33:36;;;;;;;12.98;10.07;;;1.10;99.90;;;;;;5063929;28;20393;-80
2022/04/03 07:36:03;;;;;;;13.90;9.55;;;1.00;99.90;;;;;;5066573;28;20024;-81
2022/04/03 07:38:29;;;;;;;15.77;9.77;;;1.00;99.90;;;;;;5073776;28;20021;-81
2022/04/03 07:40:55;;;;;;;13.65;9.07;;;1.10;99.90;;;;;;5078859;28;20033;-83
2022/04/03 07:43:22;;;;;;;15.60;9.05;;;1.20;99.90;;;;;;5068681;28;20026;-81
2022/04/03 07:45:49;;;;;;;10.68;7.75;;;1.30;99.90;;;;;;5046051;28;20021;-80
2022/04/03 07:48:16;;;;;;;12.70;8.43;;;1.40;99.90;;;;;;5063317;28;20041;-81
2022/04/03 07:50:42;;;;;;;13.10;9.25;;;1.50;99.90;;;;;;5063227;28;20025;-80
2022/04/03 07:53:08;;;;;;;13.68;8.23;;;1.70;99.90;;;;;;5061744;28;20481;-82
2022/04/03 07:55:34;;;;;;;11.02;7.70;;;2.10;99.90;;;;;;5062832;28;20036;-80
2022/04/03 07:58:00;;;;;;;11.88;9.07;;;2.40;99.90;;;;;;5062738;28;20028;-82
2022/04/03 08:00:26;;;;;;;15.25;9.43;;;2.40;99.90;;;;;;5064019;28;20556;-81
2022/04/03 08:02:52;;;;;;;13.32;9.20;;;2.20;99.00;;;;;;5068800;28;20142;-80
2022/04/03 08:05:17;;;;;;;14.18;10.00;;;2.00;98.50;;;;;;5050507;28;20089;-80
2022/04/03 08:07:45;;;;;;;15.00;10.73;;;1.90;99.30;;;;;;5070189;28;20040;-79
2022/04/03 08:10:16;;;;;;;14.40;10.23;;;1.90;99.30;;;;;;5068171;28;20021;-79
2022/04/03 08:12:43;;;;;;;14.60;11.15;;;2.10;98.20;;;;;;5049369;28;20346;-82
2022/04/03 08:15:10;;;;;;;14.70;11.70;;;2.10;98.00;;;;;;5060460;28;20057;-79
2022/04/03 08:17:40;;;;;;;15.82;11.10;;;2.10;97.40;;;;;;5061116;28;20044;-82
2022/04/03 08:20:11;;;;;;;17.52;11.38;;;2.00;97.10;;;;;;5068985;28;20035;-79
2022/04/03 08:22:37;;;;;;;16.20;11.45;;;1.90;97.60;;;;;;5068483;28;20021;-79
2022/04/03 08:25:05;;;;;;;15.20;12.30;;;2.00;98.60;;;;;;5065054;28;20029;-80
2022/04/03 08:27:43;;;;;;;13.75;10.68;;;2.10;97.90;;;;;;5049566;28;20025;-83
2022/04/03 08:30:15;;;;;;;16.10;9.20;;;2.20;98.30;;;;;;5070454;28;20469;-81
2022/04/03 08:32:45;;;;;;;12.48;9.75;;;2.40;97.00;;;;;;5052669;28;20485;-81
2022/04/03 08:35:13;;;;;;;12.20;9.45;;;2.60;97.10;;;;;;5059733;28;20013;-81
2022/04/03 08:37:41;;;;;;;13.65;9.90;;;2.70;97.10;;;;;;5077474;28;20033;-82
2022/04/03 08:40:11;;;;;;;13.80;8.13;;;3.00;97.10;;;;;;5060829;28;20029;-82
2022/04/03 08:42:38;;;;;;;10.07;8.50;;;3.40;96.30;;;;;;5071324;28;20072;-83
2022/04/03 08:45:12;;;;;;;13.15;7.90;;;3.60;95.50;;;;;;5060610;28;20076;-83
2022/04/03 08:48:05;;;;;;;10.50;7.57;;;3.80;94.80;;;;;;5059829;28;20051;-83
2022/04/03 08:50:36;;;;;;;10.25;7.53;;;4.10;90.80;;;;;;5074103;28;20052;-84
2022/04/03 08:53:04;;;;;;;10.70;8.75;;;4.00;91.90;;;;;;5060592;28;20033;-82
2022/04/03 08:55:31;;;;;;;11.75;8.13;;;3.90;92.10;;;;;;5077642;28;20153;-82
2022/04/03 08:58:02;;;;;;;14.30;8.25;;;3.70;92.60;;;;;;5076601;28;20068;-82
2022/04/03 09:00:33;;;;;;;13.30;7.78;;;3.50;90.70;;;;;;5057313;28;20041;-81
2022/04/03 09:02:59;;;;;;;12.38;8.30;;;3.50;90.50;;;;;;5055016;28;20024;-81
2022/04/03 09:05:36;;;;;;;13.73;10.68;;;3.80;91.20;;;;;;5063058;28;20032;-81
2022/04/03 09:08:02;;;;;;;14.48;10.20;;;4.00;89.60;;;;;;5044722;28;20024;-82
2022/04/03 09:10:29;;;;;;;21.52;12.75;;;3.90;89.00;;;;;;5043714;28;20136;-82
2022/04/03 09:12:55;;;;;;;53.50;26.48;;;3.90;87.30;;;;;;5059951;28;20044;-80
2022/04/03 09:15:22;;;;;;;21.63;12.25;;;3.80;86.30;;;;;;5042777;28;20116;-79
2022/04/03 09:17:52;;;;;;;13.65;8.82;;;3.80;87.70;;;;;;5048278;28;20021;-80
2022/04/03 09:20:30;;;;;;;17.58;12.52;;;4.10;86.60;;;;;;5044616;28;20413;-80
2022/04/03 09:23:01;;;;;;;11.10;7.00;;;4.40;87.30;;;;;;5063054;28;20028;-80
2022/04/03 09:25:30;;;;;;;10.45;6.47;;;4.80;82.40;;;;;;5062840;28;20092;-80
2022/04/03 09:28:01;;;;;;;10.95;7.03;;;4.80;80.10;;;;;;5061242;28;20029;-82
2022/04/03 09:30:35;;;;;;;9.68;6.45;;;4.40;81.00;;;;;;5062251;28;20017;-83
2022/04/03 09:33:02;;;;;;;9.13;6.18;;;4.10;82.20;;;;;;5043062;28;20017;-80
2022/04/03 09:35:52;;;;;;;9.45;6.32;;;3.80;84.60;;;;;;5059996;28;20025;-81
2022/04/03 09:38:18;;;;;;;11.68;6.38;;;3.70;85.10;;;;;;5060522;28;20060;-81
2022/04/03 09:40:46;;;;;;;10.88;6.72;;;3.80;85.80;;;;;;5033018;28;20518;-82
2022/04/03 09:43:17;;;;;;;10.23;7.22;;;3.90;85.20;;;;;;5061835;28;20025;-81
2022/04/03 09:45:50;;;;;;;8.93;6.35;;;4.30;85.90;;;;;;5050469;28;20029;-80
2022/04/03 09:48:36;;;;;;;7.70;6.15;;;4.80;86.10;;;;;;5040618;28;20032;-81
2022/04/03 09:51:03;;;;;;;5.40;4.38;;;5.40;79.70;;;;;;5041354;28;20021;-80
2022/04/03 09:53:49;;;;;;;6.13;5.03;;;5.30;78.70;;;;;;5027374;28;20017;-80
2022/04/03 09:56:37;;;;;;;5.97;4.32;;;5.30;78.70;;;;;;5042196;28;20115;-81
2022/04/03 09:59:08;;;;;;;8.73;5.97;;;5.40;77.20;;;;;;5046807;28;20396;-79
2022/04/03 10:01:36;;;;;;;6.97;6.15;;;5.30;77.90;;;;;;5059266;28;20491;-81
2022/04/03 10:04:03;;;;;;;11.10;5.18;;;5.20;78.10;;;;;;5060294;28;20029;-80
2022/04/03 10:06:30;;;;;;;7.95;5.13;;;4.90;79.30;;;;;;5036964;28;20025;-83
2022/04/03 10:08:57;;;;;;;6.57;4.53;;;4.90;78.20;;;;;;5058997;28;20409;-82
2022/04/03 10:11:23;;;;;;;7.70;4.55;;;4.80;79.10;;;;;;5056869;28;20054;-82
2022/04/03 10:13:49;;;;;;;7.80;5.18;;;4.80;78.30;;;;;;5042974;28;20024;-80
2022/04/03 10:16:17;;;;;;;7.57;4.68;;;4.80;77.90;;;;;;5058667;28;20033;-81
2022/04/03 10:18:44;;;;;;;7.05;5.10;;;4.90;78.50;;;;;;5041817;28;20056;-82
2022/04/03 10:21:37;;;;;;;7.55;4.97;;;5.50;79.30;;;;;;5061193;28;20059;-81
2022/04/03 10:24:13;;;;;;;6.25;4.25;;;5.80;73.80;;;;;;5052707;28;20026;-81
2022/04/03 10:26:41;;;;;;;6.57;5.00;;;5.40;75.30;;;;;;5059591;28;20405;-82
2022/04/03 10:29:09;;;;;;;7.05;4.97;;;5.20;76.00;;;;;;5041791;28;20021;-81
2022/04/03 10:31:53;;;;;;;5.30;4.03;;;4.90;77.50;;;;;;5058791;28;20448;-80
2022/04/03 10:34:21;;;;;;;6.05;4.35;;;4.90;79.20;;;;;;5043386;28;20044;-82
2022/04/03 10:36:49;;;;;;;4.95;4.00;;;4.90;78.20;;;;;;5058114;28;20017;-82
2022/04/03 10:39:25;;;;;;;7.00;4.22;;;4.90;77.50;;;;;;5052755;28;20033;-82
2022/04/03 10:42:16;;;;;;;6.60;4.47;;;4.80;78.00;;;;;;5059473;28;20039;-81
2022/04/03 10:44:41;;;;;;;3.97;3.58;;;4.70;79.30;;;;;;5058060;28;20033;-81
2022/04/03 10:47:17;;;;;;;8.20;5.15;;;4.70;80.20;;;;;;5040461;28;20512;-81
2022/04/03 10:49:58;;;;;;;6.35;5.00;;;5.10;76.00;;;;;;5021150;28;20421;-80
2022/04/03 10:52:54;;;;;;;4.88;4.28;;;5.30;74.60;;;;;;5021510;28;20029;-80
2022/04/03 10:55:36;;;;;;;5.50;4.35;;;5.40;72.50;;;;;;5022125;28;20077;-82
2022/04/03 10:58:04;;;;;;;;;;;5.30;71.70;;;;;;5022654;28;20433;-81
2022/04/03 11:00:31;;;;;;;6.85;4.57;;;5.00;72.40;;;;;;5029977;28;19944;-82
2022/04/03 11:02:57;;;;;;;7.25;3.83;;;5.10;75.20;;;;;;5041243;28;20445;-80
2022/04/03 11:05:26;;;;;;;9.25;4.45;;;5.50;74.30;;;;;;5058888;28;20079;-81
2022/04/03 11:08:00;;;;;;;6.60;3.88;;;5.40;72.80;;;;;;5058270;28;20112;-81
2022/04/03 11:10:48;;;;;;;6.97;4.30;;;5.40;73.80;;;;;;5046735;28;20065;-81
2022/04/03 11:13:38;;;;;;;7.18;4.20;;;5.60;71.00;;;;;;5049673;28;20394;-81
2022/04/03 11:16:09;;;;;;;4.95;3.45;;;6.30;72.30;;;;;;5065590;28;20039;-79
2022/04/03 11:18:39;;;;;;;8.02;3.70;;;7.30;66.00;;;;;;5040676;28;20025;-81
2022/04/03 11:21:22;;;;;;;6.28;3.47;;;7.50;63.60;;;;;;5059331;28;20036;-79
2022/04/03 11:24:07;;;;;;;4.00;3.03;;;7.00;63.30;;;;;;5058354;28;20065;-81
2022/04/03 11:26:34;;;;;;;3.50;2.30;;;6.60;66.70;;;;;;5062256;28;20025;-82
2022/04/03 11:29:01;;;;;;;8.93;5.53;;;6.40;69.00;;;;;;5058561;28;20080;-81
2022/04/03 11:31:27;;;;;;;7.20;4.50;;;6.10;69.00;;;;;;5058299;28;20025;-81
2022/04/03 11:33:53;;;;;;;16.02;9.73;;;5.70;68.50;;;;;;5058666;28;20029;-82
2022/04/03 11:36:27;;;;;;;12.43;7.95;;;5.30;68.50;;;;;;5049286;28;20033;-83
2022/04/03 11:38:54;;;;;;;8.20;5.65;;;4.90;68.90;;;;;;5063516;28;20060;-80
2022/04/03 11:41:27;;;;;;;9.10;5.90;;;4.70;70.00;;;;;;5044425;28;20366;-81
2022/04/03 11:44:15;;;;;;;6.00;4.72;;;4.40;70.70;;;;;;5062387;28;20085;-81
2022/04/03 11:46:46;;;;;;;4.70;3.88;;;4.30;72.70;;;;;;5078231;22;20047;-83
2022/04/03 11:49:17;;;;;;;6.55;4.10;;;4.30;71.60;;;;;;5074264;28;20025;-83
2022/04/03 11:51:45;;;;;;;5.88;3.40;;;4.40;73.20;;;;;;5062812;28;20017;-84
2022/04/03 11:54:13;;;;;;;6.35;3.33;;;4.50;70.80;;;;;;5063966;28;20035;-83
2022/04/03 11:56:39;;;;;;;3.40;2.78;;;5.20;70.50;;;;;;5070272;28;20029;-82
2022/04/03 11:59:06;;;;;;;5.78;3.28;;;5.70;68.50;;;;;;5042219;28;20504;-82
2022/04/03 12:01:35;;;;;;;3.25;2.72;;;6.00;64.60;;;;;;5057950;28;20028;-82
2022/04/03 12:04:12;;;;;;;5.63;3.20;;;6.00;63.70;;;;;;5079446;28;20086;-82
2022/04/03 12:06:40;;;;;;;5.07;2.92;;;5.70;65.50;;;;;;5061733;28;20024;-83
2022/04/03 12:09:08;;;;;;;7.18;2.95;;;5.40;65.20;;;;;;5061941;28;20024;-83
2022/04/03 12:11:42;;;;;;;5.85;2.67;;;5.00;66.00;;;;;;5061101;28;20024;-83
2022/04/03 12:14:09;;;;;;;6.53;3.40;;;4.70;67.50;;;;;;5080918;28;20028;-83
2022/04/03 12:16:37;;;;;;;3.53;2.45;;;4.60;65.90;;;;;;5083607;28;20025;-81
2022/04/03 12:19:17;;;;;;;3.33;2.67;;;4.50;67.20;;;;;;5062500;28;20028;-85
2022/04/03 12:22:10;;;;;;;3.63;2.58;;;4.60;66.20;;;;;;5064334;28;20032;-83
2022/04/03 12:24:37;;;;;;;5.07;2.60;;;4.80;66.40;;;;;;5045699;28;20037;-79
2022/04/03 12:27:15;;;;;;;2.33;2.10;;;4.90;66.30;;;;;;5076056;28;20028;-80
2022/04/03 12:29:43;;;;;;;8.80;3.30;;;5.00;66.80;;;;;;5060966;28;20029;-80
2022/04/03 12:32:12;;;;;;;3.13;2.47;;;5.40;67.80;;;;;;5078424;28;20032;-80
2022/04/03 12:34:43;;;;;;;3.35;2.22;;;6.50;66.20;;;;;;5078430;28;20463;-81
2022/04/03 12:37:10;;;;;;;4.55;2.33;;;7.10;61.00;;;;;;5078085;28;20032;-80
2022/04/03 12:39:51;;;;;;;2.85;2.13;;;6.90;60.10;;;;;;5078282;28;20081;-80
2022/04/03 12:42:24;;;;;;;4.55;2.20;;;6.40;61.10;;;;;;5079704;28;20082;-80
2022/04/03 12:44:56;;;;;;;2.47;1.85;;;6.00;62.00;;;;;;5078952;28;20031;-80
2022/04/03 12:47:32;;;;;;;4.57;2.10;;;5.90;63.20;;;;;;5074592;28;20031;-80
2022/04/03 12:50:06;;;;;;;2.33;1.98;;;6.20;64.90;;;;;;5074373;28;20277;-80
2022/04/03 12:52:45;;;;;;;3.20;2.00;;;6.90;59.70;;;;;;5077477;28;20035;-80
2022/04/03 12:55:29;;;;;;;3.80;2.08;;;7.30;57.50;;;;;;5077615;28;20024;-80
2022/04/03 13:00:54;;;;;;;7.15;2.13;;;6.50;57.30;;;;;;5085796;28;20071;-81
2022/04/03 13:03:30;;;;;;;5.47;2.30;;;5.80;58.50;;;;;;5093982;28;20087;-80
2022/04/03 13:05:56;;;;;;;4.40;2.08;;;5.60;58.80;;;;;;5081622;28;20036;-81
2022/04/03 13:08:22;;;;;;;4.22;2.50;;;5.80;60.40;;;;;;5078036;28;20146;-81
2022/04/03 13:10:58;;;;;;;4.30;2.33;;;6.10;57.50;;;;;;5078837;28;20031;-80
2022/04/03 13:13:29;;;;;;;8.57;2.72;;;6.20;57.70;;;;;;5061536;28;20107;-80
2022/04/03 13:15:57;;;;;;;3.67;2.35;;;6.50;57.40;;;;;;5077530;28;20080;-80
2022/04/03 13:18:23;;;;;;;8.57;4.45;;;6.70;57.50;;;;;;5077103;28;20303;-80
2022/04/03 13:20:51;;;;;;;12.15;5.95;;;6.90;57.00;;;;;;5078785;28;20028;-80
2022/04/03 13:23:18;;;;;;;19.25;8.85;;;6.90;55.00;;;;;;5053411;28;20028;-83
2022/04/03 13:25:44;;;;;;;4.95;3.05;;;7.20;56.20;;;;;;5041482;28;20039;-81
2022/04/03 13:28:10;;;;;;;4.50;2.85;;;7.40;54.00;;;;;;5059455;28;20041;-81
2022/04/03 13:30:36;;;;;;;4.78;3.13;;;6.90;55.00;;;;;;5059196;28;20021;-81
2022/04/03 13:33:02;;;;;;;7.72;4.80;;;6.20;55.70;;;;;;5079552;28;20048;-81
2022/04/03 13:35:28;;;;;;;4.20;2.80;;;5.50;57.70;;;;;;5079245;28;20475;-83
2022/04/03 13:37:54;;;;;;;8.40;5.47;;;4.90;59.40;;;;;;5060131;28;20059;-82
2022/04/03 13:40:20;;;;;;;13.13;7.53;;;4.60;61.70;;;;;;5081974;28;20016;-81
2022/04/03 13:42:46;;;;;;;5.47;3.75;;;4.80;64.20;;;;;;5094558;28;20020;-81
2022/04/03 13:45:12;;;;;;;6.13;4.03;;;4.90;63.00;;;;;;5062977;28;20089;-81
2022/04/03 13:47:37;;;;;;;5.53;4.00;;;4.80;62.50;;;;;;5060662;28;20029;-81
2022/04/03 13:50:05;;;;;;;5.60;3.80;;;4.60;62.70;;;;;;5077013;28;20031;-81
2022/04/03 13:52:30;;;;;;;4.97;4.13;;;4.40;63.20;;;;;;5058718;28;20105;-80
2022/04/03 13:54:57;;;;;;;3.08;2.28;;;4.50;63.90;;;;;;5077666;28;20477;-81
2022/04/03 13:57:23;;;;;;;4.72;2.92;;;4.50;63.10;;;;;;5076377;28;20099;-79
2022/04/03 13:59:50;;;;;;;4.07;2.83;;;4.60;62.30;;;;;;5075689;28;20523;-80
2022/04/03 14:02:17;;;;;;;3.30;2.40;;;4.80;61.80;;;;;;5076951;28;20050;-80
2022/04/03 14:04:43;;;;;;;4.07;2.45;;;5.40;61.50;;;;;;5059331;28;20036;-80
2022/04/03 14:07:08;;;;;;;3.80;2.78;;;6.10;57.60;;;;;;5076947;28;20070;-79
2022/04/03 14:09:35;;;;;;;2.80;1.90;;;6.20;55.70;;;;;;5075733;28;20023;-80
2022/04/03 14:12:00;;;;;;;5.10;2.03;;;6.20;54.90;;;;;;5077026;28;20137;-79
2022/04/03 14:14:26;;;;;;;2.28;2.08;;;6.30;55.70;;;;;;5077145;28;20119;-82
2022/04/03 14:16:53;;;;;;;3.65;2.03;;;6.20;56.30;;;;;;5072077;28;20032;-81
2022/04/03 14:19:19;;;;;;;3.45;2.22;;;6.00;55.20;;;;;;5079043;28;20034;-82
2022/04/03 14:21:48;;;;;;;3.00;2.38;;;5.70;56.00;;;;;;5079704;28;20802;-82
2022/04/03 14:24:14;;;;;;;5.72;2.40;;;5.70;57.10;;;;;;5076725;28;20029;-81
2022/04/03 14:26:40;;;;;;;3.15;2.25;;;6.00;56.40;;;;;;5078223;28;20028;-81
2022/04/03 14:29:06;;;;;;;2.85;2.55;;;6.30;56.70;;;;;;5076557;28;20013;-82